Time;durP1;ratioP1;P1;durP2;ratioP2;P2;SDS_P1;SDS_P2;PMS_P1;PMS_P2;Temp;Humidity;BMP_temperature;BMP_pressure;BME280_temperature;BME280_humidity;BME280_pressure;Samples;Min_cycle;Max_cycle;Signal;HPM_P1;HPM_P2
2022/12/08 00:00:26;;;;;;;24.65;15.18;;;;;;;2.91;100.00;99975.56;5066207;28;20293;-71
2022/12/08 00:02:53;;;;;;;25.60;15.60;;;;;;;2.99;100.00;99979.88;5052846;28;20201;-73
2022/12/08 00:10:48;;;;;;;26.38;14.50;;;;;;;2.94;100.00;99956.03;5047227;28;20575;-73
2022/12/08 00:13:14;;;;;;;24.58;15.50;;;;;;;2.75;100.00;99951.97;5049262;28;20198;-74
2022/12/08 00:15:42;;;;;;;26.42;14.35;;;;;;;2.64;100.00;99963.69;5054147;28;20284;-73
2022/12/08 00:18:09;;;;;;;25.17;14.20;;;;;;;2.68;100.00;99959.22;5052375;28;20201;-73
2022/12/08 00:20:35;;;;;;;23.48;14.63;;;;;;;2.74;100.00;99952.88;5052750;28;20193;-71
2022/12/08 00:23:03;;;;;;;28.55;15.10;;;;;;;2.78;100.00;99962.53;5054265;28;20288;-72
2022/12/08 00:25:30;;;;;;;25.15;14.23;;;;;;;2.88;100.00;99949.03;5046570;28;20201;-74
2022/12/08 00:27:56;;;;;;;25.98;15.77;;;;;;;2.92;100.00;99941.88;5046841;28;20212;-73
2022/12/08 00:30:23;;;;;;;25.48;15.95;;;;;;;2.97;100.00;99945.31;5054047;28;20221;-72
2022/12/08 00:32:51;;;;;;;24.63;16.27;;;;;;;2.94;100.00;99950.69;5069160;28;20280;-72
2022/12/08 00:35:17;;;;;;;24.30;15.45;;;;;;;2.98;100.00;99948.84;5079074;28;20678;-74
2022/12/08 00:37:44;;;;;;;24.13;15.52;;;;;;;3.05;100.00;99947.78;5048831;28;20229;-72
2022/12/08 00:40:11;;;;;;;26.02;16.45;;;;;;;3.07;100.00;99943.31;5045108;28;20715;-73
2022/12/08 00:42:37;;;;;;;24.75;14.10;;;;;;;3.09;100.00;99939.69;5052440;28;20201;-73
2022/12/08 00:45:05;;;;;;;23.23;14.57;;;;;;;3.03;100.00;99944.28;5053429;28;20209;-72
2022/12/08 00:47:31;;;;;;;25.42;15.40;;;;;;;3.08;100.00;99940.63;5044177;28;20201;-72
2022/12/08 00:49:59;;;;;;;24.05;14.60;;;;;;;3.09;100.00;99936.16;5051249;28;20615;-74
2022/12/08 00:52:25;;;;;;;31.05;17.52;;;;;;;3.02;100.00;99934.56;5052648;28;20578;-72
2022/12/08 00:54:52;;;;;;;24.33;15.27;;;;;;;3.03;100.00;99931.88;5049895;28;20201;-72
2022/12/08 00:57:19;;;;;;;26.50;14.75;;;;;;;3.06;100.00;99931.78;5047686;28;20202;-72
2022/12/08 00:59:45;;;;;;;23.80;15.30;;;;;;;3.16;100.00;99934.25;5049121;28;20220;-74
2022/12/08 01:02:12;;;;;;;24.77;14.43;;;;;;;3.14;100.00;99928.94;5052324;28;20207;-74
2022/12/08 01:04:38;;;;;;;25.35;14.90;;;;;;;3.19;100.00;99931.50;5058046;28;20216;-73
2022/12/08 01:07:06;;;;;;;29.13;17.48;;;;;;;3.16;100.00;99928.94;5048941;28;20241;-72
2022/12/08 01:09:33;;;;;;;23.88;14.23;;;;;;;3.25;100.00;99928.72;5048638;28;20696;-72
2022/12/08 01:12:00;;;;;;;26.38;16.23;;;;;;;3.18;100.00;99932.44;5050647;28;20217;-71
2022/12/08 01:14:26;;;;;;;26.77;15.52;;;;;;;3.16;100.00;99926.28;5051974;28;20211;-71
2022/12/08 01:16:53;;;;;;;25.80;15.13;;;;;;;3.25;100.00;99923.41;5050355;28;20729;-72
2022/12/08 01:19:20;;;;;;;25.80;14.20;;;;;;;3.31;100.00;99924.13;5051553;28;20245;-72
2022/12/08 01:21:47;;;;;;;22.90;15.48;;;;;;;3.31;100.00;99928.59;5051359;28;20194;-74
2022/12/08 01:24:17;;;;;;;25.13;15.25;;;;;;;3.28;100.00;99923.34;5053117;28;20571;-74
2022/12/08 01:26:44;;;;;;;23.45;14.02;;;;;;;3.33;100.00;99927.63;5056435;28;20627;-74
2022/12/08 01:29:11;;;;;;;28.50;16.42;;;;;;;3.38;100.00;99924.00;5053963;28;20242;-74
2022/12/08 01:31:38;;;;;;;23.35;13.85;;;;;;;3.40;100.00;99920.38;5055063;28;20316;-73
2022/12/08 01:34:05;;;;;;;26.30;15.73;;;;;;;3.40;100.00;99912.41;5054329;28;20292;-72
2022/12/08 01:36:35;;;;;;;25.17;15.73;;;;;;;3.42;100.00;99907.91;5050585;28;20296;-73
2022/12/08 01:39:05;;;;;;;23.23;15.13;;;;;;;3.41;100.00;99916.78;5050612;28;20658;-73
2022/12/08 01:41:36;;;;;;;26.77;15.68;;;;;;;3.42;100.00;99917.69;5029319;28;20659;-72
2022/12/08 01:44:24;;;;;;;25.27;15.27;;;;;;;3.46;100.00;99914.03;5048538;28;20736;-74
2022/12/08 01:46:54;;;;;;;26.80;16.02;;;;;;;3.43;100.00;99911.44;5051021;28;20200;-72
2022/12/08 01:49:25;;;;;;;31.63;15.43;;;;;;;3.42;100.00;99913.25;5047314;28;20319;-72
2022/12/08 01:51:57;;;;;;;23.48;14.95;;;;;;;3.49;100.00;99905.97;5049403;28;20213;-73
2022/12/08 01:54:27;;;;;;;29.70;16.77;;;;;;;3.51;100.00;99910.34;5050104;28;20231;-72
2022/12/08 01:57:00;;;;;;;26.55;15.85;;;;;;;3.48;100.00;99906.88;5045740;28;20581;-74
2022/12/08 01:59:29;;;;;;;23.42;15.45;;;;;;;3.51;100.00;99902.38;5048217;28;20229;-74
2022/12/08 02:01:56;;;;;;;29.50;16.58;;;;;;;3.46;100.00;99898.03;5046969;28;20623;-73
2022/12/08 02:04:23;;;;;;;26.90;16.15;;;;;;;3.49;100.00;99898.00;5047540;28;20202;-73
2022/12/08 02:06:51;;;;;;;30.77;15.98;;;;;;;3.48;100.00;99893.56;5048835;28;20317;-73
2022/12/08 02:09:19;;;;;;;33.35;16.55;;;;;;;3.49;100.00;99888.22;5047622;28;20229;-74
2022/12/08 02:11:46;;;;;;;27.80;16.27;;;;;;;3.46;100.00;99884.72;5047960;28;20252;-73
2022/12/08 02:14:15;;;;;;;28.77;16.60;;;;;;;3.47;100.00;99881.19;5051368;28;20205;-73
2022/12/08 02:16:49;;;;;;;30.98;16.88;;;;;;;3.48;100.00;99882.91;5050912;28;20645;-75
2022/12/08 02:19:47;;;;;;;28.13;17.02;;;;;;;3.43;100.00;99875.03;5048267;28;20223;-72
2022/12/08 02:22:20;;;;;;;29.63;15.32;;;;;;;3.42;100.00;99881.28;5047549;28;20427;-75
2022/12/08 02:24:54;;;;;;;26.63;15.88;;;;;;;3.40;100.00;99877.78;5049610;28;20208;-73
2022/12/08 02:27:32;;;;;;;29.00;16.95;;;;;;;3.41;100.00;99879.53;5057441;28;20268;-74
2022/12/08 02:30:16;;;;;;;24.13;14.90;;;;;;;3.44;100.00;99870.63;5059665;28;20217;-74
2022/12/08 02:33:28;;;;;;;32.17;15.95;;;;;;;3.40;100.00;99871.59;5044668;28;20306;-74
2022/12/08 02:36:00;;;;;;;29.45;15.82;;;;;;;3.39;100.00;99878.69;5053138;28;20640;-71
2022/12/08 02:38:38;;;;;;;24.45;15.75;;;;;;;3.35;100.00;99866.38;5053731;28;20300;-72
2022/12/08 02:41:17;;;;;;;29.77;16.50;;;;;;;3.33;100.00;99869.06;5050773;28;20189;-73
2022/12/08 02:43:47;;;;;;;28.33;16.83;;;;;;;3.31;100.00;99870.03;5048481;28;20216;-73
2022/12/08 02:46:21;;;;;;;28.63;16.73;;;;;;;3.27;100.00;99871.00;5052240;28;20285;-73
2022/12/08 02:48:49;;;;;;;27.13;16.65;;;;;;;3.19;100.00;99867.66;5054597;28;20216;-73
2022/12/08 02:51:17;;;;;;;24.95;15.82;;;;;;;3.17;100.00;99874.81;5043240;28;20236;-73
2022/12/08 02:53:44;;;;;;;25.95;15.68;;;;;;;3.19;100.00;99868.53;5047586;28;20205;-73
2022/12/08 02:56:34;;;;;;;26.77;15.95;;;;;;;3.13;100.00;99861.56;5053952;28;20292;-73
2022/12/08 02:59:16;;;;;;;29.13;16.50;;;;;;;3.13;100.00;99858.91;5051820;28;20670;-71
2022/12/08 03:02:04;;;;;;;30.27;16.27;;;;;;;3.09;100.00;99859.88;5058611;28;20200;-74
2022/12/08 03:04:38;;;;;;;28.60;15.93;;;;;;;3.09;100.00;99857.22;5058557;28;20197;-72
2022/12/08 03:07:12;;;;;;;33.20;17.58;;;;;;;3.08;100.00;99855.47;5052673;28;20251;-73
2022/12/08 03:09:46;;;;;;;25.50;16.02;;;;;;;3.12;100.00;99846.53;5051547;28;20623;-73
2022/12/08 03:12:17;;;;;;;26.70;15.02;;;;;;;3.13;100.00;99850.06;5054811;28;20228;-73
2022/12/08 03:14:52;;;;;;;24.98;15.13;;;;;;;3.16;100.00;99844.66;5057095;28;20201;-74
2022/12/08 03:17:22;;;;;;;28.92;16.05;;;;;;;3.21;100.00;99844.53;5055809;28;20208;-74
2022/12/08 03:19:49;;;;;;;28.55;16.45;;;;;;;3.13;100.00;99842.94;5061049;28;20209;-72
2022/12/08 03:22:22;;;;;;;31.33;17.40;;;;;;;3.14;100.00;99849.13;5061098;28;20225;-73
2022/12/08 03:24:49;;;;;;;27.40;16.83;;;;;;;3.09;100.00;99843.91;5053327;28;20209;-73
2022/12/08 03:27:19;;;;;;;30.10;18.33;;;;;;;3.08;100.00;99830.66;5054990;28;20208;-74
2022/12/08 03:29:46;;;;;;;28.08;15.73;;;;;;;3.05;100.00;99836.94;5050175;28;20224;-72
2022/12/08 03:32:20;;;;;;;32.85;15.05;;;;;;;3.07;100.00;99827.13;5055052;28;20236;-75
2022/12/08 03:34:50;;;;;;;25.17;15.70;;;;;;;3.06;100.00;99828.03;5065867;28;20212;-73
2022/12/08 03:37:18;;;;;;;29.52;16.13;;;;;;;3.05;100.00;99822.75;5056759;28;20615;-72
2022/12/08 03:39:45;;;;;;;28.70;17.08;;;;;;;3.06;100.00;99822.72;5052386;28;20304;-72
2022/12/08 03:42:12;;;;;;;27.75;17.25;;;;;;;3.15;100.00;99823.41;5038258;28;20244;-72
2022/12/08 03:44:38;;;;;;;30.88;16.05;;;;;;;3.12;100.00;99816.34;5036605;28;20202;-72
2022/12/08 03:47:05;;;;;;;30.02;15.48;;;;;;;3.18;100.00;99815.34;5050944;28;20244;-73
2022/12/08 03:49:31;;;;;;;29.77;14.65;;;;;;;3.16;100.00;99811.84;5050113;28;20307;-73
2022/12/08 03:51:58;;;;;;;27.25;16.42;;;;;;;3.19;100.00;99811.75;5047724;28;20725;-75
2022/12/08 03:54:26;;;;;;;26.58;16.23;;;;;;;3.22;100.00;99814.38;5048217;28;20312;-72
2022/12/08 03:56:52;;;;;;;27.73;16.70;;;;;;;3.26;100.00;99803.59;5051817;28;20535;-73
2022/12/08 03:59:19;;;;;;;26.95;16.05;;;;;;;3.32;100.00;99810.53;5048754;28;20251;-74
2022/12/08 04:01:45;;;;;;;31.05;16.58;;;;;;;3.27;100.00;99800.03;5053050;28;20199;-73
2022/12/08 04:04:12;;;;;;;27.63;15.40;;;;;;;3.37;100.00;99805.09;5051058;28;20293;-73
2022/12/08 04:06:38;;;;;;;31.08;17.80;;;;;;;3.38;100.00;99798.88;5051075;28;20204;-72
2022/12/08 04:09:05;;;;;;;25.73;14.95;;;;;;;3.42;100.00;99805.88;5070794;22;20229;-72
2022/12/08 04:11:33;;;;;;;27.95;15.07;;;;;;;3.46;100.00;99804.88;5076686;28;20318;-72
2022/12/08 04:13:59;;;;;;;26.27;14.35;;;;;;;3.48;100.00;99808.38;5076475;28;20197;-73
2022/12/08 04:16:27;;;;;;;25.20;15.68;;;;;;;3.51;100.00;99801.19;5071649;28;20204;-72
2022/12/08 04:18:54;;;;;;;25.13;15.32;;;;;;;3.45;100.00;99798.69;5076536;28;20303;-73
2022/12/08 04:21:21;;;;;;;26.48;15.95;;;;;;;3.45;100.00;99797.81;5066172;28;20270;-73
2022/12/08 04:23:47;;;;;;;28.10;14.20;;;;;;;3.36;100.00;99796.25;5071535;28;20201;-73
2022/12/08 04:26:14;;;;;;;23.63;14.32;;;;;;;3.37;100.00;99795.34;5076201;28;20217;-74
2022/12/08 04:28:42;;;;;;;25.70;15.77;;;;;;;3.41;100.00;99793.47;5075310;28;20634;-72
2022/12/08 04:31:09;;;;;;;28.58;15.38;;;;;;;3.32;100.00;99792.81;5076478;28;20197;-72
2022/12/08 04:33:36;;;;;;;24.08;15.18;;;;;;;3.30;100.00;99788.41;5076954;28;20193;-72
2022/12/08 04:36:03;;;;;;;22.10;13.18;;;;;;;3.29;100.00;99792.00;5073615;28;20196;-73
2022/12/08 04:38:30;;;;;;;26.60;15.23;;;;;;;3.30;100.00;99788.41;5071045;28;20674;-73
2022/12/08 04:40:56;;;;;;;28.40;15.68;;;;;;;3.27;100.00;99785.84;5072762;28;20209;-74
2022/12/08 04:43:23;;;;;;;25.50;14.82;;;;;;;3.29;100.00;99784.88;5076888;28;20548;-74
2022/12/08 04:45:51;;;;;;;23.02;14.80;;;;;;;3.30;100.00;99784.00;5075576;28;20283;-74
2022/12/08 04:48:18;;;;;;;24.73;15.32;;;;;;;3.34;100.00;99782.97;5074619;28;20200;-74
2022/12/08 04:50:45;;;;;;;24.20;13.52;;;;;;;3.44;100.00;99786.28;5074594;28;20533;-73
2022/12/08 04:53:13;;;;;;;28.92;15.77;;;;;;;3.41;100.00;99782.81;5068396;28;20224;-73
2022/12/08 04:55:42;;;;;;;27.02;15.00;;;;;;;3.46;100.00;99789.78;5071706;28;20558;-73
2022/12/08 04:58:12;;;;;;;26.70;13.95;;;;;;;3.48;100.00;99781.75;5076044;28;20198;-72
2022/12/08 05:00:39;;;;;;;26.08;15.23;;;;;;;3.39;100.00;99780.19;5076006;28;20231;-74
2022/12/08 05:03:06;;;;;;;29.63;15.35;;;;;;;3.34;100.00;99775.00;5077680;28;20206;-73
2022/12/08 05:05:33;;;;;;;26.70;15.73;;;;;;;3.33;100.00;99770.59;5076079;28;20247;-72
2022/12/08 05:08:00;;;;;;;29.05;14.45;;;;;;;3.30;100.00;99769.78;5072759;28;20228;-73
2022/12/08 05:10:26;;;;;;;26.90;14.98;;;;;;;3.33;100.00;99770.59;5074390;28;20251;-74
2022/12/08 05:12:53;;;;;;;24.92;14.35;;;;;;;3.32;100.00;99767.97;5077806;28;20217;-73
2022/12/08 05:15:19;;;;;;;24.77;14.95;;;;;;;3.29;100.00;99773.38;5075877;28;20207;-74
2022/12/08 05:17:46;;;;;;;30.92;15.30;;;;;;;3.31;100.00;99774.22;5077885;28;20197;-74
2022/12/08 05:20:14;;;;;;;25.65;15.50;;;;;;;3.38;100.00;99767.81;5077687;28;20225;-73
2022/12/08 05:22:41;;;;;;;25.25;15.48;;;;;;;3.35;100.00;99767.91;5078734;28;20203;-73
2022/12/08 05:25:08;;;;;;;26.75;15.30;;;;;;;3.25;100.00;99769.91;5077444;28;20212;-74
2022/12/08 05:27:34;;;;;;;24.02;14.50;;;;;;;3.33;100.00;99764.41;5071046;28;20686;-73
2022/12/08 05:30:01;;;;;;;25.42;14.07;;;;;;;3.27;100.00;99764.56;5074336;28;20226;-72
2022/12/08 05:32:28;;;;;;;25.58;15.00;;;;;;;3.30;100.00;99761.81;5078630;28;20229;-73
2022/12/08 05:34:54;;;;;;;25.92;15.50;;;;;;;3.32;100.00;99762.63;5076690;28;20534;-73
2022/12/08 05:37:22;;;;;;;24.55;15.02;;;;;;;3.33;100.00;99756.41;5071452;28;20229;-76
2022/12/08 05:39:49;;;;;;;24.10;14.60;;;;;;;3.33;100.00;99759.09;5076628;28;20591;-74
2022/12/08 05:42:15;;;;;;;27.77;15.40;;;;;;;3.39;100.00;99750.03;5076112;28;20654;-75
2022/12/08 05:44:42;;;;;;;30.40;15.38;;;;;;;3.36;100.00;99748.34;5075355;28;20187;-72
2022/12/08 05:47:08;;;;;;;29.58;15.55;;;;;;;3.37;100.00;99750.13;5074618;28;20688;-74
2022/12/08 05:49:35;;;;;;;25.13;13.63;;;;;;;3.42;100.00;99744.66;5071789;28;20223;-74
2022/12/08 05:52:01;;;;;;;25.48;15.20;;;;;;;3.36;100.00;99748.34;5073741;28;20225;-73
2022/12/08 05:54:29;;;;;;;22.90;13.57;;;;;;;3.28;100.00;99748.56;5090343;28;20224;-72
2022/12/08 05:56:56;;;;;;;23.40;13.55;;;;;;;3.38;100.00;99751.84;5087077;28;20581;-71
2022/12/08 05:59:23;;;;;;;21.40;12.93;;;;;;;3.36;100.00;99751.00;5086359;28;20220;-72
2022/12/08 06:01:49;;;;;;;26.40;15.35;;;;;;;3.34;100.00;99752.84;5077483;28;20217;-72
2022/12/08 06:04:17;;;;;;;21.52;13.98;;;;;;;3.41;100.00;99748.22;5078785;28;20235;-72
2022/12/08 06:06:43;;;;;;;26.25;15.02;;;;;;;3.34;100.00;99744.84;5087758;28;20211;-72
2022/12/08 06:09:11;;;;;;;27.45;15.13;;;;;;;3.40;100.00;99751.81;5087115;28;20235;-73
2022/12/08 06:11:39;;;;;;;35.53;14.70;;;;;;;3.36;100.00;99756.31;5085835;28;20196;-72
2022/12/08 06:14:10;;;;;;;26.00;15.57;;;;;;;3.30;100.00;99752.06;5088646;28;20211;-73
2022/12/08 06:16:36;;;;;;;27.42;15.30;;;;;;;3.30;100.00;99756.47;5080830;28;20200;-74
2022/12/08 06:19:03;;;;;;;26.30;15.18;;;;;;;3.27;100.00;99753.91;5074466;28;20225;-73
2022/12/08 06:21:29;;;;;;;29.60;14.70;;;;;;;3.32;100.00;99752.00;5079491;28;20213;-72
2022/12/08 06:23:56;;;;;;;26.48;14.77;;;;;;;3.32;100.00;99744.00;5091177;28;20201;-73
2022/12/08 06:26:23;;;;;;;31.23;15.00;;;;;;;3.21;100.00;99754.97;5091237;28;20207;-72
2022/12/08 06:28:51;;;;;;;26.70;16.00;;;;;;;3.29;100.00;99754.75;5091796;28;20217;-73
2022/12/08 06:31:19;;;;;;;30.63;17.00;;;;;;;3.26;100.00;99761.03;5092041;28;20299;-73
2022/12/08 06:33:46;;;;;;;24.15;14.68;;;;;;;3.31;100.00;99760.91;5092012;28;20204;-74
2022/12/08 06:36:14;;;;;;;24.05;14.57;;;;;;;3.20;100.00;99757.66;5101129;28;20216;-72
2022/12/08 06:38:41;;;;;;;22.42;15.13;;;;;;;3.31;100.00;99764.44;5088901;28;20203;-71
2022/12/08 06:41:07;;;;;;;24.80;13.82;;;;;;;3.22;100.00;99763.81;5092580;28;20269;-74
2022/12/08 06:43:34;;;;;;;22.92;14.45;;;;;;;3.21;100.00;99762.94;5096762;28;20200;-73
2022/12/08 06:46:06;;;;;;;24.38;14.57;;;;;;;3.22;100.00;99771.78;5096260;28;20228;-73
2022/12/08 06:48:33;;;;;;;25.00;14.40;;;;;;;3.26;100.00;99770.81;5091952;28;20249;-73
2022/12/08 06:51:06;;;;;;;29.35;16.92;;;;;;;3.25;100.00;99758.41;5089917;28;20193;-71
2022/12/08 06:53:33;;;;;;;29.42;15.40;;;;;;;3.17;100.00;99757.75;5102697;28;20251;-73
2022/12/08 06:55:59;;;;;;;26.85;15.40;;;;;;;3.10;100.00;99757.88;5080840;28;20206;-72
2022/12/08 06:58:26;;;;;;;29.05;16.10;;;;;;;3.11;100.00;99756.09;5068284;28;20280;-71
2022/12/08 07:00:52;;;;;;;26.75;14.10;;;;;;;3.16;100.00;99759.50;5079110;28;20196;-72
2022/12/08 07:03:20;;;;;;;28.08;14.52;;;;;;;3.11;100.00;99764.94;5077588;28;20650;-73
2022/12/08 07:05:47;;;;;;;23.13;13.20;;;;;;;3.05;100.00;99762.44;5077491;28;20285;-72
2022/12/08 07:08:14;;;;;;;28.17;15.50;;;;;;;2.99;100.00;99757.28;5074478;28;20207;-72
2022/12/08 07:10:41;;;;;;;24.15;14.43;;;;;;;3.03;100.00;99758.94;5076927;28;20227;-73
2022/12/08 07:13:08;;;;;;;29.38;15.75;;;;;;;3.03;100.00;99758.94;5077711;28;20223;-73
2022/12/08 07:15:34;;;;;;;25.95;15.10;;;;;;;3.12;100.00;99757.81;5077299;28;20551;-73
2022/12/08 07:18:01;;;;;;;22.58;13.75;;;;;;;3.02;100.00;99756.31;5080456;28;20212;-72
2022/12/08 07:20:29;;;;;;;30.55;16.33;;;;;;;2.90;100.00;99757.50;5080136;28;20216;-74
2022/12/08 07:22:55;;;;;;;29.00;15.73;;;;;;;2.91;100.00;99754.78;5076669;28;20188;-73
2022/12/08 07:25:23;;;;;;;24.50;13.85;;;;;;;2.91;100.00;99764.56;5064634;28;20193;-73
2022/12/08 07:27:50;;;;;;;28.60;15.93;;;;;;;2.88;100.00;99759.31;5084450;28;20201;-73
2022/12/08 07:30:17;;;;;;;28.20;15.55;;;;;;;2.83;100.00;99762.09;5082297;28;20462;-72
2022/12/08 07:32:43;;;;;;;25.23;15.35;;;;;;;2.88;100.00;99759.31;5064901;28;20231;-75
2022/12/08 07:35:11;;;;;;;27.90;15.93;;;;;;;2.87;100.00;99755.78;5074346;28;20264;-74
2022/12/08 07:37:39;;;;;;;32.35;14.90;;;;;;;2.86;100.00;99753.16;5072760;28;20196;-71
2022/12/08 07:40:08;;;;;;;26.08;16.25;;;;;;;2.89;100.00;99761.97;5069557;28;20252;-72
2022/12/08 07:42:34;;;;;;;31.40;16.58;;;;;;;2.91;100.00;99759.22;5077057;28;20275;-73
2022/12/08 07:45:01;;;;;;;32.45;16.08;;;;;;;2.98;100.00;99754.66;5072649;28;20189;-72
2022/12/08 07:47:28;;;;;;;30.15;17.75;;;;;;;2.90;100.00;99754.84;5073370;28;20236;-73
2022/12/08 07:49:54;;;;;;;33.92;16.65;;;;;;;2.93;100.00;99758.28;5073579;28;20212;-71
2022/12/08 07:52:21;;;;;;;36.58;17.48;;;;;;;2.89;100.00;99751.31;5069398;28;20631;-73
2022/12/08 07:54:50;;;;;;;26.08;15.25;;;;;;;2.96;100.00;99759.13;5073739;28;20394;-73
2022/12/08 07:57:17;;;;;;;24.13;14.55;;;;;;;2.87;100.00;99752.25;5081437;28;20205;-72
2022/12/08 07:59:43;;;;;;;28.63;17.05;;;;;;;2.91;100.00;99760.09;5084213;28;20292;-73
2022/12/08 08:02:16;;;;;;;29.70;16.83;;;;;;;3.08;100.00;99751.72;5083952;28;20203;-72
2022/12/08 08:04:43;;;;;;;25.55;15.55;;;;;;;3.03;100.00;99753.63;5080677;28;20570;-74
2022/12/08 08:07:09;;;;;;;27.02;17.00;;;;;;;2.91;100.00;99744.16;5083431;28;20199;-72
2022/12/08 08:09:36;;;;;;;26.60;15.95;;;;;;;2.88;100.00;99749.56;5078641;28;20228;-72
2022/12/08 08:12:04;;;;;;;28.02;15.55;;;;;;;2.91;100.00;99743.28;5080384;28;20263;-72
2022/12/08 08:14:31;;;;;;;30.02;16.30;;;;;;;2.93;100.00;99750.31;5082040;28;20272;-72
2022/12/08 08:16:58;;;;;;;27.35;15.98;;;;;;;2.93;100.00;99752.09;5078161;28;20209;-72
2022/12/08 08:19:24;;;;;;;30.85;17.00;;;;;;;2.98;100.00;99755.50;5075798;28;20288;-72
2022/12/08 08:21:51;;;;;;;27.83;15.90;;;;;;;3.09;100.00;99758.78;5077051;28;20228;-73
2022/12/08 08:24:17;;;;;;;26.48;16.10;;;;;;;3.12;100.00;99755.16;5077313;28;20252;-71
2022/12/08 08:26:44;;;;;;;24.75;14.52;;;;;;;3.04;100.00;99749.19;5079112;28;20264;-72
2022/12/08 08:29:12;;;;;;;23.88;14.55;;;;;;;3.04;100.00;99755.38;5076721;28;20240;-72
2022/12/08 08:31:39;;;;;;;26.65;15.13;;;;;;;3.03;100.00;99753.63;5077829;28;20196;-72
2022/12/08 08:34:05;;;;;;;29.10;16.33;;;;;;;3.09;100.00;99755.25;5076827;28;20255;-72
2022/12/08 08:36:32;;;;;;;30.05;17.63;;;;;;;3.17;100.00;99755.06;5077187;28;20203;-72
2022/12/08 08:39:00;;;;;;;28.50;16.88;;;;;;;3.21;100.00;99762.03;5075211;28;20311;-72
2022/12/08 08:41:26;;;;;;;30.67;15.68;;;;;;;3.25;100.00;99759.25;5076379;28;20688;-71
2022/12/08 08:43:54;;;;;;;28.25;15.77;;;;;;;3.35;100.00;99765.25;5077954;28;20200;-72
2022/12/08 08:46:22;;;;;;;26.70;15.93;;;;;;;3.40;100.00;99755.34;5075428;28;20193;-73
2022/12/08 08:48:49;;;;;;;27.15;15.20;;;;;;;3.45;100.00;99752.56;5076280;28;20219;-73
2022/12/08 08:51:15;;;;;;;25.70;16.05;;;;;;;3.45;100.00;99756.09;5077206;28;20199;-72
2022/12/08 08:53:42;;;;;;;24.85;14.73;;;;;;;3.62;100.00;99760.06;5077500;28;20653;-72
2022/12/08 08:56:09;;;;;;;26.45;14.88;;;;;;;3.51;100.00;99753.28;5078410;28;20280;-71
2022/12/08 08:58:36;;;;;;;22.63;13.85;;;;;;;3.68;100.00;99763.44;5077715;28;20201;-72
2022/12/08 09:01:03;;;;;;;25.55;14.93;;;;;;;3.61;100.00;99766.34;5079017;28;20204;-72
2022/12/08 09:03:31;;;;;;;26.02;14.93;;;;;;;3.54;100.00;99762.97;5075045;28;20192;-72
2022/12/08 09:05:58;;;;;;;23.60;14.98;;;;;;;3.54;100.00;99755.84;5081424;28;20212;-73
2022/12/08 09:08:25;;;;;;;22.52;13.13;;;;;;;3.64;100.00;99761.81;5078975;28;20202;-73
2022/12/08 09:10:51;;;;;;;26.17;13.38;;;;;;;3.67;100.00;99760.84;5083466;28;20281;-72
2022/12/08 09:13:18;;;;;;;25.05;15.05;;;;;;;3.60;100.00;99751.28;5087410;28;20239;-73
2022/12/08 09:15:44;;;;;;;22.13;12.57;;;;;;;3.65;100.00;99755.56;5076051;28;20207;-72
2022/12/08 09:18:11;;;;;;;22.63;13.63;;;;;;;3.82;100.00;99748.88;5083018;28;20205;-71
2022/12/08 09:20:39;;;;;;;22.13;12.70;;;;;;;3.83;100.00;99759.50;5078621;28;20266;-74
2022/12/08 09:23:06;;;;;;;20.02;12.80;;;;;;;4.05;100.00;99745.53;5076770;28;20284;-72
2022/12/08 09:25:32;;;;;;;22.15;12.93;;;;;;;4.00;100.00;99753.69;5080091;28;20205;-73
2022/12/08 09:27:59;;;;;;;21.00;12.75;;;;;;;3.99;100.00;99745.75;5074103;28;20188;-72
2022/12/08 09:30:26;;;;;;;19.90;10.90;;;;;;;4.03;100.00;99750.06;5097688;28;20306;-72
2022/12/08 09:32:52;;;;;;;22.42;13.80;;;;;;;4.08;100.00;99756.13;5090711;28;20289;-73
2022/12/08 09:35:19;;;;;;;21.20;12.93;;;;;;;4.04;100.00;99749.16;5089508;28;20226;-72
2022/12/08 09:37:46;;;;;;;19.77;12.13;;;;;;;4.16;100.00;99748.78;5090518;28;20725;-72
2022/12/08 09:40:17;;;;;;;18.40;12.77;;;;;;;4.35;100.00;99749.97;5090420;28;20276;-72
2022/12/08 09:42:50;;;;;;;18.35;10.45;;;;;;;4.42;100.00;99749.81;5085523;28;20211;-73
2022/12/08 09:45:18;;;;;;;20.85;11.07;;;;;;;4.45;100.00;99744.38;5088059;28;20188;-72
2022/12/08 09:47:52;;;;;;;16.55;12.05;;;;;;;4.44;100.00;99751.50;5086154;28;20203;-72
2022/12/08 09:50:28;;;;;;;20.23;12.13;;;;;;;4.55;100.00;99738.72;5078982;28;20246;-72
2022/12/08 09:53:02;;;;;;;22.35;11.27;;;;;;;4.51;100.00;99738.84;5079786;28;20312;-73
2022/12/08 09:55:40;;;;;;;20.73;10.75;;;;;;;4.46;100.00;99728.34;5080066;28;20201;-72
2022/12/08 09:58:15;;;;;;;16.65;11.63;;;;;;;4.60;100.00;99733.22;5060309;28;20213;-73
2022/12/08 10:00:42;;;;;;;22.60;13.00;;;;;;;4.78;100.00;99727.31;5061438;28;20318;-72
2022/12/08 10:03:11;;;;;;;20.33;12.60;;;;;;;4.79;100.00;99723.72;5061598;28;20204;-72
2022/12/08 10:05:44;;;;;;;18.23;11.95;;;;;;;4.93;100.00;99714.38;5075813;28;20229;-71
2022/12/08 10:08:19;;;;;;;17.00;11.23;;;;;;;4.94;100.00;99717.00;5082598;28;20232;-72
2022/12/08 10:10:52;;;;;;;17.52;10.95;;;;;;;4.75;100.00;99715.88;5114744;22;20226;-76
2022/12/08 10:13:24;;;;;;;17.35;11.57;;;;;;;4.77;100.00;99706.91;5079473;28;20210;-75
2022/12/08 10:16:03;;;;;;;17.48;11.65;;;;;;;4.98;100.00;99705.31;5087068;28;20283;-75
2022/12/08 10:18:33;;;;;;;17.65;11.82;;;;;;;4.70;100.00;99715.13;5095731;28;20277;-75
2022/12/08 10:21:13;;;;;;;20.02;10.98;;;;;;;4.77;100.00;99714.00;5097078;28;20664;-74
2022/12/08 10:23:44;;;;;;;17.58;11.25;;;;;;;4.75;100.00;99706.06;5077041;28;20278;-75
2022/12/08 10:26:13;;;;;;;18.10;11.07;;;;;;;4.86;100.00;99703.06;5076502;28;20207;-75
2022/12/08 10:28:40;;;;;;;18.48;11.35;;;;;;;4.86;100.00;99696.81;5075594;28;20261;-74
2022/12/08 10:31:07;;;;;;;18.08;10.77;;;;;;;4.80;100.00;99706.78;5075962;28;20227;-74
2022/12/08 10:33:33;;;;;;;16.10;10.65;;;;;;;4.72;100.00;99706.16;5083116;28;20305;-76
2022/12/08 10:36:01;;;;;;;16.50;9.80;;;;;;;4.80;100.00;99704.13;5093264;28;20209;-77
2022/12/08 10:38:30;;;;;;;17.15;11.00;;;;;;;4.70;100.00;99699.13;5077227;28;20199;-77
2022/12/08 10:41:04;;;;;;;17.77;11.07;;;;;;;4.62;100.00;99707.38;5076835;28;20252;-74
2022/12/08 10:43:31;;;;;;;16.85;10.82;;;;;;;4.73;100.00;99697.25;5076639;28;20198;-69
2022/12/08 10:46:09;;;;;;;18.45;9.25;;;;;;;5.36;100.00;99692.44;5076669;28;20226;-69
2022/12/08 10:48:36;;;;;;;50.00;28.92;;;;;;;5.92;100.00;99693.94;5077693;28;20186;-72
2022/12/08 10:51:04;;;;;;;15.60;10.75;;;;;;;5.59;100.00;99675.59;5076089;28;20229;-74
2022/12/08 10:53:33;;;;;;;14.80;9.10;;;;;;;5.30;100.00;99673.09;5075097;28;20269;-73
2022/12/08 10:56:15;;;;;;;15.55;9.45;;;;;;;5.46;100.00;99660.94;5091315;28;20205;-75
2022/12/08 10:58:43;;;;;;;13.15;8.60;;;;;;;5.53;100.00;99664.25;5094744;28;20217;-74
2022/12/08 11:01:13;;;;;;;13.02;8.80;;;;;;;5.62;100.00;99666.59;5094677;28;20309;-74
2022/12/08 11:03:46;;;;;;;15.35;9.35;;;;;;;5.68;100.00;99660.16;5095459;28;20221;-72
2022/12/08 11:06:17;;;;;;;17.02;8.80;;;;;;;5.70;100.00;99656.50;5087075;28;20203;-74
2022/12/08 11:08:50;;;;;;;20.83;9.82;;;;;;;5.87;100.00;99658.53;5074492;28;20211;-73
2022/12/08 11:11:19;;;;;;;15.73;10.18;;;;;;;6.10;100.00;99649.66;5074970;28;20238;-73
2022/12/08 11:13:49;;;;;;;16.08;9.75;;;;;;;5.98;100.00;99656.34;5076033;28;20251;-73
2022/12/08 11:16:17;;;;;;;12.95;7.90;;;;;;;5.85;100.00;99658.56;5075429;28;20624;-73
2022/12/08 11:18:46;;;;;;;14.10;9.82;;;;;;;5.93;100.00;99655.63;5078736;28;20204;-74
2022/12/08 11:21:15;;;;;;;15.25;8.75;;;;;;;5.92;100.00;99645.84;5083507;28;20693;-75
2022/12/08 11:23:46;;;;;;;16.85;8.30;;;;;;;6.18;100.00;99644.88;5084260;28;20196;-75
2022/12/08 11:26:23;;;;;;;14.18;8.27;;;;;;;6.34;100.00;99639.78;5085616;28;20302;-73
2022/12/08 11:28:50;;;;;;;16.70;8.38;;;;;;;6.23;100.00;99644.69;5095908;28;20278;-73